Time;durP1;ratioP1;P1;durP2;ratioP2;P2;SDS_P1;SDS_P2;PMS_P1;PMS_P2;Temp;Humidity;BMP_temperature;BMP_pressure;BME280_temperature;BME280_humidity;BME280_pressure;Samples;Min_cycle;Max_cycle;Signal;HPM_P1;HPM_P2
2024/02/11 00:01:37;;;;;;;;;35.00;24.00;;;;;6.01;100.00;98599.83;113077;240;39547;-56
2024/02/11 00:04:16;;;;;;;;;32.00;23.00;;;;;6.01;100.00;98599.95;112971;238;161933;-56
2024/02/11 00:06:54;;;;;;;;;31.67;22.00;;;;;5.98;100.00;98601.36;113155;240;40309;-54
2024/02/11 00:09:29;;;;;;;;;31.75;22.75;;;;;5.98;100.00;98606.05;113160;240;39356;-53
2024/02/11 00:12:05;;;;;;;;;28.00;21.00;;;;;5.92;100.00;98615.86;112894;240;39318;-56
2024/02/11 00:14:48;;;;;;;;;34.25;25.25;;;;;5.84;100.00;98606.61;113168;240;38955;-57
2024/02/11 00:17:30;;;;;;;;;30.25;20.00;;;;;5.86;100.00;98605.98;112847;238;161773;-56
2024/02/11 00:20:09;;;;;;;;;22.00;17.25;;;;;5.88;100.00;98604.46;113097;240;39661;-56
2024/02/11 00:22:48;;;;;;;;;23.00;17.50;;;;;5.89;100.00;98601.25;112862;240;161763;-52
2024/02/11 00:25:31;;;;;;;;;28.50;18.50;;;;;5.84;100.00;98605.88;112866;240;39471;-52
2024/02/11 00:28:10;;;;;;;;;29.00;21.00;;;;;5.85;100.00;98610.77;112957;238;161854;-56
2024/02/11 00:30:45;;;;;;;;;25.75;17.75;;;;;5.83;100.00;98610.58;112998;240;39701;-56
2024/02/11 00:33:28;;;;;;;;;26.00;18.00;;;;;5.81;100.00;98612.17;113175;240;39602;-56
2024/02/11 00:36:19;;;;;;;;;26.00;19.00;;;;;5.82;100.00;98615.39;112854;240;41478;-56
2024/02/11 00:38:56;;;;;;;;;22.75;17.50;;;;;5.78;100.00;98618.06;113173;240;40942;-56
2024/02/11 00:41:41;;;;;;;;;28.00;19.75;;;;;5.80;100.00;98619.84;113033;238;161543;-54
2024/02/11 00:44:18;;;;;;;;;27.00;19.00;;;;;5.80;100.00;98618.88;113176;239;39515;-53
2024/02/11 00:46:54;;;;;;;;;29.00;19.00;;;;;5.79;100.00;98618.85;112850;238;161556;-56
2024/02/11 00:49:35;;;;;;;;;27.00;20.00;;;;;5.81;100.00;98618.80;113038;240;39506;-56
2024/02/11 00:52:10;;;;;;;;;34.00;23.00;;;;;5.81;100.00;98613.94;112976;238;162171;-53
2024/02/11 00:54:51;;;;;;;;;25.50;19.00;;;;;5.82;100.00;98612.51;112975;240;40583;-53
2024/02/11 00:57:31;;;;;;;;;26.50;19.00;;;;;5.84;100.00;98614.09;113178;240;39839;-52
2024/02/11 01:00:13;;;;;;;;;29.00;21.67;;;;;5.82;100.00;98612.38;112841;240;39922;-52
2024/02/11 01:02:50;;;;;;;;;24.50;17.50;;;;;5.82;100.00;98617.16;113181;239;39151;-53
2024/02/11 01:05:26;;;;;;;;;19.00;15.00;;;;;5.84;100.00;98622.95;112986;238;161739;-53
2024/02/11 01:08:02;;;;;;;;;32.00;23.00;;;;;5.82;100.00;98615.92;113202;239;38986;-56
2024/02/11 01:10:45;;;;;;;;;30.00;21.75;;;;;5.84;100.00;98611.55;112999;238;161723;-56
2024/02/11 01:13:22;;;;;;;;;32.25;24.25;;;;;5.81;100.00;98613.48;113103;239;40415;-53
2024/02/11 01:16:00;;;;;;;;;30.00;22.25;;;;;5.80;100.00;98607.52;113017;237;161766;-52
2024/02/11 01:18:39;;;;;;;;;31.25;22.00;;;;;5.75;100.00;98609.77;113142;240;40855;-56
2024/02/11 01:21:18;;;;;;;;;36.00;24.00;;;;;5.74;100.00;98611.09;113182;240;40904;-55
2024/02/11 01:23:57;;;;;;;;;21.75;16.75;;;;;5.72;100.00;98606.84;112749;240;161550;-53
2024/02/11 01:26:40;;;;;;;;;29.00;22.25;;;;;5.73;100.00;98606.63;113187;240;40017;-53
2024/02/11 01:29:26;;;;;;;;;27.00;19.50;;;;;5.73;100.00;98600.61;112754;238;161906;-52
2024/02/11 01:32:09;;;;;;;;;34.00;25.00;;;;;5.71;100.00;98597.95;113202;240;40072;-53
2024/02/11 01:34:49;;;;;;;;;33.75;24.00;;;;;5.67;100.00;98592.34;112891;238;161849;-53
2024/02/11 01:37:31;;;;;;;;;23.75;15.75;;;;;5.65;100.00;98591.27;113075;240;38885;-53
2024/02/11 01:40:12;;;;;;;;;33.25;23.50;;;;;5.64;100.00;98592.63;112969;238;161620;-53
2024/02/11 01:42:49;;;;;;;;;23.00;18.00;;;;;5.67;100.00;98589.38;112976;240;39759;-53
2024/02/11 01:45:30;;;;;;;;;31.00;21.25;;;;;5.63;100.00;98589.46;113154;240;39999;-53
2024/02/11 01:48:09;;;;;;;;;29.00;21.33;;;;;5.65;100.00;98595.64;112916;240;39597;-53
2024/02/11 01:50:52;;;;;;;;;19.00;14.00;;;;;5.64;100.00;98597.57;113170;240;40425;-53
2024/02/11 01:53:29;;;;;;;;;31.00;19.00;;;;;5.64;100.00;98596.79;112803;238;161602;-53
2024/02/11 01:56:13;;;;;;;;;26.00;17.00;;;;;5.62;100.00;98593.41;113161;240;39301;-53
2024/02/11 01:58:52;;;;;;;;;20.75;16.00;;;;;5.64;100.00;98589.38;112850;238;161761;-53
2024/02/11 02:01:31;;;;;;;;;24.25;16.00;;;;;5.66;100.00;98585.80;113018;240;39233;-56
2024/02/11 02:04:08;;;;;;;;;24.50;18.50;;;;;5.68;100.00;98585.10;112705;239;161760;-55
2024/02/11 02:06:47;;;;;;;;;27.00;18.67;;;;;5.60;100.00;98580.67;112827;240;39852;-56
2024/02/11 02:09:22;;;;;;;;;18.50;14.50;;;;;5.57;100.00;98577.73;112882;240;39493;-56
2024/02/11 02:12:04;;;;;;;;;20.33;15.67;;;;;5.55;100.00;98577.41;112698;240;161468;-57
2024/02/11 02:14:42;;;;;;;;;33.00;24.00;;;;;5.56;100.00;98580.30;112880;240;41154;-57
2024/02/11 02:17:16;;;;;;;;;19.00;14.67;;;;;5.58;100.00;98580.95;112705;239;161085;-54
2024/02/11 02:19:58;;;;;;;;;30.75;23.00;;;;;5.54;100.00;98584.48;112877;240;40588;-53
2024/02/11 02:22:38;;;;;;;;;27.00;19.25;;;;;5.53;100.00;98584.98;112724;239;161843;-55
2024/02/11 02:25:18;;;;;;;;;36.00;27.33;;;;;5.47;100.00;98582.65;112853;240;39608;-56
2024/02/11 02:27:54;;;;;;;;;22.00;17.00;;;;;5.45;100.00;98579.92;112784;239;162018;-54
2024/02/11 02:30:29;;;;;;;;;19.67;15.67;;;;;5.43;100.00;98582.42;112832;240;40869;-53
2024/02/11 02:33:03;;;;;;;;;22.75;16.50;;;;;5.43;100.00;98579.63;112905;240;40665;-57
2024/02/11 02:35:49;;;;;;;;;23.00;18.00;;;;;5.44;100.00;98583.68;112724;239;161678;-57
2024/02/11 02:38:26;;;;;;;;;33.00;22.00;;;;;5.46;100.00;98591.46;112905;240;40122;-53
2024/02/11 02:41:04;;;;;;;;;20.75;15.25;;;;;5.42;100.00;98589.67;112664;239;161606;-53
2024/02/11 02:43:44;;;;;;;;;29.75;21.50;;;;;5.45;100.00;98596.45;112853;240;39337;-53
2024/02/11 02:46:27;;;;;;;;;31.50;22.50;;;;;5.42;100.00;98595.31;112733;239;161796;-56
2024/02/11 02:49:08;;;;;;;;;29.00;22.00;;;;;5.43;100.00;98591.77;112846;240;41077;-57
2024/02/11 02:51:45;;;;;;;;;23.00;16.00;;;;;5.43;100.00;98588.12;112742;239;161796;-53
2024/02/11 02:54:23;;;;;;;;;29.00;21.00;;;;;5.42;100.00;98587.71;112837;240;41224;-52
2024/02/11 02:57:01;;;;;;;;;21.33;16.00;;;;;5.41;100.00;98577.52;112843;240;41156;-56
2024/02/11 02:59:40;;;;;;;;;28.00;21.00;;;;;5.45;100.00;98576.14;112689;239;161437;-56
2024/02/11 03:02:16;;;;;;;;;27.33;19.33;;;;;5.49;100.00;98576.44;112842;240;39078;-54
2024/02/11 03:04:57;;;;;;;;;33.00;25.50;;;;;5.42;100.00;98573.48;112660;239;161418;-53
2024/02/11 03:07:40;;;;;;;;;23.75;15.75;;;;;5.43;100.00;98576.88;112823;240;40199;-56
2024/02/11 03:10:20;;;;;;;;;33.00;23.00;;;;;5.42;100.00;98575.05;112662;241;161499;-56
2024/02/11 03:13:03;;;;;;;;;34.00;24.00;;;;;5.41;100.00;98574.73;112874;240;39937;-56
2024/02/11 03:15:37;;;;;;;;;35.00;27.00;;;;;5.44;100.00;98577.56;112719;238;161988;-56
2024/02/11 03:18:13;;;;;;;;;31.00;19.50;;;;;5.46;100.00;98572.18;112847;240;40570;-53
2024/02/11 03:20:53;;;;;;;;;25.50;19.00;;;;;5.47;100.00;98568.27;112911;240;40674;-53
2024/02/11 03:23:39;;;;;;;;;30.75;20.25;;;;;5.45;100.00;98567.27;112688;239;162034;-56
2024/02/11 03:26:23;;;;;;;;;33.00;20.50;;;;;5.45;100.00;98569.98;112843;240;39784;-56
2024/02/11 03:29:10;;;;;;;;;37.50;27.00;;;;;5.35;100.00;98570.88;112663;239;162903;-53
2024/02/11 03:31:53;;;;;;;;;37.00;25.00;;;;;5.31;100.00;98572.59;112848;240;39684;-53
2024/02/11 03:34:33;;;;;;;;;25.00;19.00;;;;;5.33;100.00;98572.48;112653;240;161775;-53
2024/02/11 03:37:07;;;;;;;;;30.25;22.50;;;;;5.29;100.00;98579.05;112884;240;40239;-56
2024/02/11 03:39:45;;;;;;;;;38.00;26.25;;;;;5.29;100.00;98579.98;112726;239;161805;-56
2024/02/11 03:42:23;;;;;;;;;27.00;19.00;;;;;5.29;100.00;98586.59;112841;240;39673;-57
2024/02/11 03:45:08;;;;;;;;;29.00;20.00;;;;;5.28;100.00;98599.02;112814;240;39341;-57
2024/02/11 03:47:48;;;;;;;;;25.75;17.50;;;;;5.27;100.00;98597.27;112729;240;161473;-53
2024/02/11 03:50:26;;;;;;;;;21.50;15.50;;;;;5.29;100.00;98593.18;112843;240;39999;-53
2024/02/11 03:53:03;;;;;;;;;32.00;22.00;;;;;5.28;100.00;98594.19;112741;239;161434;-53
2024/02/11 03:55:45;;;;;;;;;32.75;25.75;;;;;5.26;100.00;98591.75;112858;240;39577;-53
2024/02/11 03:58:23;;;;;;;;;28.33;21.00;;;;;5.29;100.00;98587.08;112727;241;161742;-57
2024/02/11 04:01:05;;;;;;;;;30.25;20.50;;;;;5.30;100.00;98586.80;112861;240;40376;-57
2024/02/11 04:03:42;;;;;;;;;26.00;20.00;;;;;5.30;100.00;98584.30;112765;239;162048;-54
2024/02/11 04:06:22;;;;;;;;;28.00;20.00;;;;;5.32;100.00;98585.44;112854;240;39504;-56
2024/02/11 04:09:08;;;;;;;;;31.75;22.50;;;;;5.31;100.00;98584.45;112832;240;40666;-57
2024/02/11 04:11:48;;;;;;;;;28.00;20.50;;;;;5.29;100.00;98584.23;112288;238;553452;-57
2024/02/11 04:14:52;;;;;;;;;25.00;19.00;;;;;5.31;100.00;98584.83;113150;240;40756;-57
2024/02/11 04:17:36;;;;;;;;;45.67;31.00;;;;;5.32;100.00;98587.88;112823;239;161875;-56
2024/02/11 04:20:23;;;;;;;;;23.75;17.00;;;;;5.34;100.00;98589.48;112847;240;40038;-56
2024/02/11 04:22:58;;;;;;;;;25.00;16.25;;;;;5.36;100.00;98588.46;112708;239;161383;-54
2024/02/11 04:25:34;;;;;;;;;25.25;17.00;;;;;5.38;100.00;98586.61;112819;240;39658;-53
2024/02/11 04:28:20;;;;;;;;;34.67;21.00;;;;;5.34;100.00;98581.45;112732;240;161621;-53
2024/02/11 04:30:57;;;;;;;;;22.00;16.00;;;;;5.33;100.00;98578.36;112810;240;40548;-53
2024/02/11 04:33:32;;;;;;;;;28.67;19.33;;;;;5.26;100.00;98577.43;112895;240;39702;-57
2024/02/11 04:36:18;;;;;;;;;27.00;21.00;;;;;5.26;100.00;98572.52;112868;240;41235;-57
2024/02/11 04:39:07;;;;;;;;;22.00;17.00;;;;;5.24;100.00;98574.83;112863;240;40117;-57
2024/02/11 04:41:44;;;;;;;;;24.00;17.00;;;;;5.23;100.00;98571.77;112691;239;162421;-53
2024/02/11 04:44:26;;;;;;;;;29.00;22.00;;;;;5.29;100.00;98568.38;112859;240;39810;-54
2024/02/11 04:47:06;;;;;;;;;23.00;17.00;;;;;5.31;100.00;98563.36;112795;242;162048;-54
2024/02/11 04:49:49;;;;;;;;;28.00;20.67;;;;;5.33;100.00;98560.73;112868;240;39184;-53
2024/02/11 04:52:24;;;;;;;;;27.00;18.33;;;;;5.31;100.00;98566.86;112721;239;162706;-55
2024/02/11 04:55:01;;;;;;;;;23.00;17.00;;;;;5.29;100.00;98561.49;112824;240;39895;-54
2024/02/11 04:57:38;;;;;;;;;18.00;14.00;;;;;5.31;100.00;98564.10;112837;240;40000;-57
2024/02/11 05:00:26;;;;;;;;;22.50;15.00;;;;;5.31;100.00;98559.09;112807;240;40428;-57
2024/02/11 05:03:17;;;;;;;;;24.00;18.75;;;;;5.28;100.00;98553.96;112905;240;40760;-57
2024/02/11 05:05:59;;;;;;;;;21.00;16.00;;;;;5.32;100.00;98550.77;112717;239;161558;-57
2024/02/11 05:08:38;;;;;;;;;22.00;16.00;;;;;5.36;100.00;98548.51;112907;240;39655;-53
2024/02/11 05:11:19;;;;;;;;;30.00;19.00;;;;;5.33;100.00;98546.20;112701;239;161754;-54
2024/02/11 05:14:00;;;;;;;;;32.00;20.75;;;;;5.35;100.00;98544.69;112838;240;39586;-53
2024/02/11 05:16:37;;;;;;;;;26.00;17.75;;;;;5.35;100.00;98545.05;112746;240;162874;-56
2024/02/11 05:19:14;;;;;;;;;30.25;22.00;;;;;5.34;100.00;98543.98;112851;240;41641;-56
2024/02/11 05:21:53;;;;;;;;;22.00;15.25;;;;;5.32;100.00;98541.21;112752;239;161802;-54
2024/02/11 05:24:45;;;;;;;;;26.33;19.67;;;;;5.33;100.00;98544.79;112822;240;41030;-53
2024/02/11 05:27:23;;;;;;;;;21.67;15.33;;;;;5.35;100.00;98544.33;112892;240;39831;-53
2024/02/11 05:29:57;;;;;;;;;26.00;18.33;;;;;5.36;100.00;98547.65;112696;239;161816;-53
2024/02/11 05:32:38;;;;;;;;;23.25;15.50;;;;;5.35;100.00;98549.51;112909;240;40046;-54
2024/02/11 05:35:21;;;;;;;;;20.25;15.50;;;;;5.37;100.00;98551.59;112706;240;161499;-54
2024/02/11 05:38:02;;;;;;;;;21.50;15.00;;;;;5.38;100.00;98550.52;112902;240;39779;-56
2024/02/11 05:40:41;;;;;;;;;28.00;19.75;;;;;5.36;100.00;98549.73;112672;239;162644;-56
2024/02/11 05:43:20;;;;;;;;;26.50;19.50;;;;;5.32;100.00;98550.93;112870;240;40731;-56
2024/02/11 05:45:54;;;;;;;;;24.25;16.00;;;;;5.36;100.00;98551.94;112694;239;161788;-56
2024/02/11 05:48:37;;;;;;;;;20.50;16.00;;;;;5.30;100.00;98555.91;112772;240;39356;-52
2024/02/11 05:51:17;;;;;;;;;19.00;14.00;;;;;5.27;100.00;98556.59;112829;240;39333;-52
2024/02/11 05:53:57;;;;;;;;;25.00;17.00;;;;;5.30;100.00;98560.77;112695;239;161804;-56
2024/02/11 05:56:37;;;;;;;;;23.50;16.50;;;;;5.27;100.00;98561.52;112883;240;39591;-56
2024/02/11 05:59:13;;;;;;;;;23.00;16.50;;;;;5.28;100.00;98559.32;112666;239;161568;-56
2024/02/11 06:01:48;;;;;;;;;19.00;14.00;;;;;5.28;100.00;98558.98;112865;240;39846;-56
2024/02/11 06:04:22;;;;;;;;;32.50;20.50;;;;;5.31;100.00;98560.27;112680;239;162139;-57
2024/02/11 06:07:04;;;;;;;;;20.75;14.00;;;;;5.33;100.00;98561.80;112880;240;40294;-56
2024/02/11 06:09:48;;;;;;;;;23.50;17.50;;;;;5.33;100.00;98561.67;112858;240;39564;-56
2024/02/11 06:12:26;;;;;;;;;20.00;15.00;;;;;5.38;100.00;98563.15;112792;240;39605;-57
2024/02/11 06:15:07;;;;;;;;;30.50;22.50;;;;;5.35;100.00;98561.61;112868;240;41024;-57
2024/02/11 06:17:45;;;;;;;;;25.00;20.00;;;;;5.33;100.00;98561.89;112721;240;161636;-53
2024/02/11 06:20:21;;;;;;;;;23.00;17.33;;;;;5.26;100.00;98559.77;112862;240;40766;-52
2024/02/11 06:22:56;;;;;;;;;22.00;14.25;;;;;5.25;100.00;98558.43;112721;240;161505;-56
2024/02/11 06:25:34;;;;;;;;;21.50;15.75;;;;;5.29;100.00;98563.72;112862;240;39358;-57
2024/02/11 06:28:09;;;;;;;;;26.25;18.00;;;;;5.26;100.00;98564.74;112754;239;161590;-57
2024/02/11 06:30:44;;;;;;;;;29.33;20.67;;;;;5.32;100.00;98560.65;112980;240;39337;-57
2024/02/11 06:33:26;;;;;;;;;26.00;19.25;;;;;5.33;100.00;98564.04;113230;240;39788;-57
2024/02/11 06:36:07;;;;;;;;;19.67;15.33;;;;;5.38;100.00;98564.92;112750;239;161578;-57
2024/02/11 06:38:48;;;;;;;;;23.50;17.00;;;;;5.41;100.00;98563.80;112885;240;40491;-57
2024/02/11 06:41:24;;;;;;;;;22.00;16.33;;;;;5.40;100.00;98562.98;112708;239;161506;-54
2024/02/11 06:44:06;;;;;;;;;21.67;15.67;;;;;5.37;100.00;98563.01;112811;240;39567;-53
2024/02/11 06:46:43;;;;;;;;;26.00;19.25;;;;;5.36;100.00;98561.33;112708;239;161421;-52
2024/02/11 06:49:21;;;;;;;;;21.75;16.50;;;;;5.38;100.00;98562.15;112798;240;39898;-52
2024/02/11 06:52:04;;;;;;;;;19.00;15.00;;;;;5.41;100.00;98555.90;112677;239;161611;-55
2024/02/11 06:54:42;;;;;;;;;23.00;17.00;;;;;5.38;100.00;98559.14;112832;240;41156;-54
2024/02/11 06:57:17;;;;;;;;;20.33;15.00;;;;;5.39;100.00;98557.63;112859;240;41176;-56
2024/02/11 06:59:57;;;;;;;;;21.50;16.00;;;;;5.42;100.00;98558.33;112631;239;161436;-56
2024/02/11 07:02:39;;;;;;;;;21.00;15.00;;;;;5.43;100.00;98554.92;112842;240;39713;-51
2024/02/11 07:05:19;;;;;;;;;25.00;16.00;;;;;5.43;100.00;98560.15;112681;239;161471;-51
2024/02/11 07:08:00;;;;;;;;;24.75;16.00;;;;;5.43;100.00;98561.05;112822;240;41195;-52
2024/02/11 07:10:48;;;;;;;;;16.00;12.00;;;;;5.41;100.00;98559.85;112725;239;161841;-52
2024/02/11 07:13:27;;;;;;;;;16.00;12.33;;;;;5.47;100.00;98559.41;112853;240;41148;-57
2024/02/11 07:16:07;;;;;;;;;30.00;23.00;;;;;5.43;100.00;98556.48;112721;239;161917;-62
2024/02/11 07:18:54;;;;;;;;;26.50;18.00;;;;;5.39;100.00;98553.70;112874;240;39517;-52
2024/02/11 07:21:36;;;;;;;;;33.75;25.00;;;;;5.44;100.00;98554.67;112917;240;39743;-53
2024/02/11 07:24:15;;;;;;;;;24.75;17.75;;;;;5.49;100.00;98554.72;112688;239;161412;-53
2024/02/11 07:27:02;;;;;;;;;29.25;22.00;;;;;5.54;100.00;98552.60;112979;240;38970;-56
2024/02/11 07:29:38;;;;;;;;;32.75;23.00;;;;;5.59;100.00;98551.21;112669;239;162306;-56
2024/02/11 07:32:27;;;;;;;;;31.00;24.25;;;;;5.55;100.00;98548.81;112863;240;39952;-55
2024/02/11 07:35:07;;;;;;;;;35.50;25.25;;;;;5.55;100.00;98551.00;112735;239;161749;-53
2024/02/11 07:37:41;;;;;;;;;38.00;25.00;;;;;5.60;100.00;98544.08;112904;240;39479;-55
2024/02/11 07:40:18;;;;;;;;;29.00;22.25;;;;;5.62;100.00;98546.89;112748;239;161944;-55
2024/02/11 07:42:54;;;;;;;;;35.00;22.00;;;;;5.61;100.00;98543.64;112888;240;39639;-55
2024/02/11 07:45:33;;;;;;;;;26.00;20.00;;;;;5.59;100.00;98543.26;112890;240;40011;-55
2024/02/11 07:48:17;;;;;;;;;38.00;26.00;;;;;5.64;100.00;98544.88;112695;240;161577;-53
2024/02/11 07:51:02;;;;;;;;;26.75;20.00;;;;;5.66;100.00;98543.42;112820;240;40019;-52
2024/02/11 07:53:41;;;;;;;;;30.75;23.00;;;;;5.70;100.00;98540.39;112679;240;160623;-55
2024/02/11 07:56:29;;;;;;;;;34.67;24.00;;;;;5.75;100.00;98546.02;112926;240;41148;-54
2024/02/11 07:59:11;;;;;;;;;27.75;20.25;;;;;5.71;100.00;98542.20;112661;240;161603;-52
2024/02/11 08:01:48;;;;;;;;;38.00;27.00;;;;;5.71;100.00;98547.23;112910;240;40854;-56
2024/02/11 08:04:28;;;;;;;;;28.25;19.75;;;;;5.77;100.00;98549.47;112768;239;161887;-56
2024/02/11 08:07:10;;;;;;;;;31.75;23.25;;;;;5.76;100.00;98545.31;112934;240;39373;-56
2024/02/11 08:09:49;;;;;;;;;33.00;24.00;;;;;5.78;100.00;98548.23;112930;240;40171;-56
2024/02/11 08:12:29;;;;;;;;;23.00;18.00;;;;;5.75;100.00;98544.73;112862;240;40395;-52
2024/02/11 08:15:06;;;;;;;;;34.33;26.00;;;;;5.80;100.00;98544.40;112901;240;39684;-52
2024/02/11 08:17:42;;;;;;;;;25.00;18.50;;;;;5.83;100.00;98545.11;112714;241;161372;-56
2024/02/11 08:20:18;;;;;;;;;34.50;25.75;;;;;5.87;100.00;98538.71;112842;240;39762;-55
2024/02/11 08:22:59;;;;;;;;;23.50;19.00;;;;;5.87;100.00;98538.47;112724;238;161763;-52
2024/02/11 08:25:42;;;;;;;;;29.00;21.00;;;;;5.87;100.00;98539.73;112871;240;39913;-52
2024/02/11 08:28:21;;;;;;;;;26.00;20.00;;;;;5.90;100.00;98539.16;112761;239;162018;-56
2024/02/11 08:31:03;;;;;;;;;29.00;21.00;;;;;5.96;100.00;98535.70;112828;240;40028;-56
2024/02/11 08:33:44;;;;;;;;;22.75;18.00;;;;;5.95;100.00;98537.40;112869;240;39764;-52
2024/02/11 08:36:28;;;;;;;;;30.50;23.00;;;;;5.97;100.00;98539.09;112889;239;40355;-52
2024/02/11 08:39:05;;;;;;;;;25.33;19.67;;;;;6.01;100.00;98539.26;113187;239;39881;-52
2024/02/11 08:41:40;;;;;;;;;31.00;24.33;;;;;6.07;100.00;98536.01;112823;239;161764;-56
2024/02/11 08:44:21;;;;;;;;;23.00;18.50;;;;;6.10;100.00;98538.86;112941;240;39403;-56
2024/02/11 08:46:58;;;;;;;;;27.00;20.33;;;;;6.11;100.00;98534.20;112768;239;161734;-53
2024/02/11 08:49:39;;;;;;;;;24.75;18.50;;;;;6.10;100.00;98539.52;112899;240;39746;-52
2024/02/11 08:52:21;;;;;;;;;25.00;19.00;;;;;6.13;100.00;98538.52;112722;239;161997;-56
2024/02/11 08:55:00;;;;;;;;;26.50;18.75;;;;;6.19;100.00;98540.41;112895;240;40988;-52
2024/02/11 08:57:41;;;;;;;;;29.00;21.33;;;;;6.19;100.00;98539.38;112872;240;38998;-56
2024/02/11 09:00:24;;;;;;;;;28.25;21.00;;;;;6.18;100.00;98538.27;112731;239;161325;-57
2024/02/11 09:03:05;;;;;;;;;30.00;23.00;;;;;6.17;100.00;98536.17;112912;240;40718;-56
2024/02/11 09:05:45;;;;;;;;;24.00;19.00;;;;;6.26;100.00;98539.38;112679;240;161636;-56
2024/02/11 09:08:24;;;;;;;;;30.50;22.50;;;;;6.34;100.00;98536.73;112842;240;40039;-56
2024/02/11 09:11:05;;;;;;;;;28.75;22.00;;;;;6.36;100.00;98536.11;112696;239;161783;-56
2024/02/11 09:13:51;;;;;;;;;21.00;15.33;;;;;6.34;100.00;98535.29;112800;240;40783;-56
2024/02/11 09:16:26;;;;;;;;;26.25;20.50;;;;;6.41;100.00;98532.68;112655;239;162261;-56
2024/02/11 09:19:01;;;;;;;;;23.00;16.75;;;;;6.48;100.00;98533.91;112856;240;39632;-56
2024/02/11 09:21:39;;;;;;;;;34.33;25.00;;;;;6.51;100.00;98537.17;112864;240;39824;-56
2024/02/11 09:24:17;;;;;;;;;27.75;19.50;;;;;6.56;100.00;98531.80;112698;239;161596;-59
2024/02/11 09:26:54;;;;;;;;;33.75;25.00;;;;;6.58;100.00;98524.70;112926;240;39504;-56
2024/02/11 09:29:30;;;;;;;;;33.67;24.67;;;;;6.60;100.00;98528.23;112745;240;162281;-56
2024/02/11 09:32:08;;;;;;;;;37.50;26.50;;;;;6.68;100.00;98527.86;112910;240;40817;-56
2024/02/11 09:34:50;;;;;;;;;30.25;22.50;;;;;6.70;100.00;98523.92;112701;239;161612;-57
2024/02/11 09:37:32;;;;;;;;;33.50;24.25;;;;;6.75;100.00;98522.02;112851;240;39716;-57
2024/02/11 09:40:10;;;;;;;;;32.50;24.00;;;;;6.79;100.00;98519.31;112711;239;163097;-58
2024/02/11 09:42:47;;;;;;;;;40.50;28.00;;;;;6.86;100.00;98519.87;112795;240;40024;-53
2024/02/11 09:45:30;;;;;;;;;37.00;26.00;;;;;6.93;100.00;98508.04;112829;240;41172;-52
2024/02/11 09:48:07;;;;;;;;;38.50;26.75;;;;;6.98;100.00;98509.09;112711;239;161785;-57
2024/02/11 09:50:50;;;;;;;;;38.25;26.75;;;;;7.01;100.00;98508.34;112862;240;39873;-56
2024/02/11 09:53:26;;;;;;;;;37.25;28.25;;;;;7.09;100.00;98503.77;112770;240;161825;-56
2024/02/11 09:56:02;;;;;;;;;35.50;25.50;;;;;7.18;100.00;98499.30;112844;240;40409;-56
2024/02/11 09:58:39;;;;;;;;;40.00;29.00;;;;;7.29;100.00;98497.43;112815;239;161782;-52
2024/02/11 10:01:17;;;;;;;;;33.50;24.50;;;;;7.36;100.00;98492.55;112835;240;40123;-53
2024/02/11 10:03:58;;;;;;;;;33.25;25.00;;;;;7.44;100.00;98493.90;112807;240;40203;-52
2024/02/11 10:06:39;;;;;;;;;35.00;25.25;;;;;7.49;100.00;98492.35;112906;240;38921;-52
2024/02/11 10:09:18;;;;;;;;;36.00;27.50;;;;;7.55;100.00;98491.15;112945;241;40524;-52
2024/02/11 10:11:57;;;;;;;;;29.33;24.00;;;;;7.59;100.00;98494.05;112702;241;161795;-55
2024/02/11 10:14:32;;;;;;;;;34.00;24.00;;;;;7.69;100.00;98495.79;112896;241;39048;-55
2024/02/11 10:17:09;;;;;;;;;31.50;23.50;;;;;7.75;100.00;98492.34;112732;241;161764;-56
2024/02/11 10:19:57;;;;;;;;;39.75;28.25;;;;;7.84;100.00;98486.61;112837;241;40436;-56
2024/02/11 10:22:33;;;;;;;;;35.33;25.67;;;;;7.89;100.00;98485.63;112754;239;163273;-56
2024/02/11 10:25:11;;;;;;;;;33.00;25.00;;;;;7.95;100.00;98480.40;112828;241;39041;-61
2024/02/11 10:27:47;;;;;;;;;39.00;27.25;;;;;7.98;100.00;98483.92;112897;241;40494;-54
2024/02/11 10:30:22;;;;;;;;;41.75;31.00;;;;;7.99;100.00;98477.42;112700;239;161619;-53
2024/02/11 10:33:01;;;;;;;;;34.50;25.00;;;;;8.00;100.00;98476.05;112886;241;39092;-57
2024/02/11 10:35:42;;;;;;;;;40.00;29.00;;;;;8.03;100.00;98473.88;112750;239;161815;-59
2024/02/11 10:38:21;;;;;;;;;42.00;30.50;;;;;8.08;100.00;98468.88;112863;241;39812;-52
2024/02/11 10:41:00;;;;;;;;;37.00;25.00;;;;;8.16;100.00;98465.12;112687;239;161628;-54
2024/02/11 10:43:36;;;;;;;;;45.00;32.00;;;;;8.19;100.00;98464.09;112881;241;40503;-56
2024/02/11 10:46:14;;;;;;;;;31.25;24.50;;;;;8.26;100.00;98459.57;112673;239;161800;-56
2024/02/11 10:48:50;;;;;;;;;36.00;27.00;;;;;8.24;100.00;98458.34;112817;241;39354;-56
2024/02/11 10:51:34;;;;;;;;;39.75;30.00;;;;;8.29;100.00;98455.77;112873;241;40832;-56
2024/02/11 10:54:15;;;;;;;;;31.50;24.00;;;;;8.30;100.00;98451.85;112693;241;161452;-63
2024/02/11 10:57:02;;;;;;;;;38.00;27.00;;;;;8.29;100.00;98450.39;112875;241;39377;-52
2024/02/11 10:59:45;;;;;;;;;37.00;28.00;;;;;8.35;100.00;98449.16;112705;241;161488;-52
2024/02/11 11:02:28;;;;;;;;;37.25;27.00;;;;;8.39;100.00;98447.13;112899;241;39981;-53
2024/02/11 11:05:10;;;;;;;;;30.00;23.00;;;;;8.43;100.00;98442.37;112763;241;161796;-52
2024/02/11 11:07:53;;;;;;;;;30.00;23.00;;;;;8.43;100.00;98438.68;112909;240;39660;-51
2024/02/11 11:10:35;;;;;;;;;39.00;27.00;;;;;8.38;100.00;98441.02;112768;241;161385;-50
2024/02/11 11:13:12;;;;;;;;;39.00;29.75;;;;;8.41;100.00;98436.35;112865;242;41346;-53
2024/02/11 11:15:53;;;;;;;;;33.75;25.00;;;;;8.44;100.00;98431.52;112838;242;39728;-52
2024/02/11 11:18:37;;;;;;;;;28.00;21.25;;;;;8.43;100.00;98430.86;112848;241;41555;-52
2024/02/11 11:21:25;;;;;;;;;23.67;18.00;;;;;8.43;100.00;98430.16;112834;241;39079;-52
2024/02/11 11:24:09;;;;;;;;;34.25;24.25;;;;;8.45;100.00;98432.20;112679;239;161800;-52
2024/02/11 11:26:53;;;;;;;;;27.00;21.00;;;;;8.49;100.00;98430.38;112859;242;41307;-55
2024/02/11 11:29:37;;;;;;;;;32.00;24.00;;;;;8.46;100.00;98422.96;112730;241;162104;-56
2024/02/11 11:32:21;;;;;;;;;32.00;26.00;;;;;8.50;100.00;98427.60;112950;242;40732;-55
2024/02/11 11:35:03;;;;;;;;;28.67;22.00;;;;;8.54;100.00;98427.79;112695;239;161999;-55
2024/02/11 11:37:47;;;;;;;;;20.25;16.50;;;;;8.57;100.00;98421.47;112838;242;39137;-56
2024/02/11 11:40:26;;;;;;;;;26.00;21.00;;;;;8.62;100.00;98422.20;112679;238;161855;-56
2024/02/11 11:43:12;;;;;;;;;31.50;24.00;;;;;8.71;100.00;98424.37;112851;241;41063;-52
2024/02/11 11:46:04;;;;;;;;;38.00;28.50;;;;;8.80;100.00;98422.80;112838;241;39068;-52
2024/02/11 11:48:44;;;;;;;;;41.75;30.50;;;;;8.81;100.00;98416.16;112803;242;38491;-55
2024/02/11 11:51:26;;;;;;;;;31.75;24.00;;;;;8.76;100.00;98417.08;112872;241;40969;-52
2024/02/11 11:54:09;;;;;;;;;31.25;25.00;;;;;8.83;100.00;98410.77;112692;239;161794;-51
2024/02/11 11:56:55;;;;;;;;;38.00;28.33;;;;;8.84;100.00;98406.39;112877;241;38917;-51
2024/02/11 11:59:34;;;;;;;;;39.00;29.00;;;;;8.93;100.00;98408.01;112704;239;162079;-51
2024/02/11 12:02:11;;;;;;;;;28.00;22.25;;;;;8.99;100.00;98405.34;112891;242;39568;-52
2024/02/11 12:04:48;;;;;;;;;40.00;29.00;;;;;9.05;100.00;98405.92;112701;239;161945;-53
2024/02/11 12:07:32;;;;;;;;;25.25;18.75;;;;;9.09;100.00;98403.07;112890;242;39471;-55
2024/02/11 12:10:11;;;;;;;;;38.25;29.00;;;;;9.10;100.00;98398.05;112871;240;40716;-57
2024/02/11 12:12:46;;;;;;;;;35.75;28.00;;;;;9.07;100.00;98397.15;112484;240;452461;-56